sensor_id;sensor_type;location;lat;lon;timestamp;P1;durP1;ratioP1;P2;durP2;ratioP2
9938;SDS011;5008;50.656;7.188;2023-06-22T04:03:13;7.13;;;6.40;;
9938;SDS011;5008;50.656;7.188;2023-06-22T04:05:40;5.63;;;5.22;;
9938;SDS011;5008;50.656;7.188;2023-06-22T04:10:56;7.80;;;5.97;;
9938;SDS011;5008;50.656;7.188;2023-06-22T04:13:23;8.65;;;6.43;;
9938;SDS011;5008;50.656;7.188;2023-06-22T04:15:49;6.68;;;6.10;;
9938;SDS011;5008;50.656;7.188;2023-06-22T04:18:18;8.18;;;6.18;;
9938;SDS011;5008;50.656;7.188;2023-06-22T04:20:44;6.40;;;5.80;;
9938;SDS011;5008;50.656;7.188;2023-06-22T04:23:11;6.13;;;5.63;;
9938;SDS011;5008;50.656;7.188;2023-06-22T04:25:38;6.22;;;5.40;;
9938;SDS011;5008;50.656;7.188;2023-06-22T04:28:05;6.10;;;5.60;;
9938;SDS011;5008;50.656;7.188;2023-06-22T04:30:37;6.15;;;5.65;;
9938;SDS011;5008;50.656;7.188;2023-06-22T04:33:11;6.90;;;5.65;;
9938;SDS011;5008;50.656;7.188;2023-06-22T04:35:39;6.43;;;5.22;;
9938;SDS011;5008;50.656;7.188;2023-06-22T04:38:07;6.45;;;5.55;;
9938;SDS011;5008;50.656;7.188;2023-06-22T04:40:34;6.45;;;5.85;;
9938;SDS011;5008;50.656;7.188;2023-06-22T04:43:01;6.20;;;5.60;;
9938;SDS011;5008;50.656;7.188;2023-06-22T04:45:28;6.65;;;5.90;;
9938;SDS011;5008;50.656;7.188;2023-06-22T04:47:56;7.00;;;6.20;;
9938;SDS011;5008;50.656;7.188;2023-06-22T04:50:23;7.20;;;5.75;;
9938;SDS011;5008;50.656;7.188;2023-06-22T04:52:52;6.35;;;5.63;;
9938;SDS011;5008;50.656;7.188;2023-06-22T04:55:19;5.75;;;5.25;;
9938;SDS011;5008;50.656;7.188;2023-06-22T04:57:46;6.50;;;5.90;;
9938;SDS011;5008;50.656;7.188;2023-06-22T05:00:14;6.47;;;5.85;;
9938;SDS011;5008;50.656;7.188;2023-06-22T05:02:43;7.20;;;6.47;;
9938;SDS011;5008;50.656;7.188;2023-06-22T05:05:10;6.25;;;5.65;;
9938;SDS011;5008;50.656;7.188;2023-06-22T05:07:39;6.47;;;5.88;;
9938;SDS011;5008;50.656;7.188;2023-06-22T05:10:10;6.60;;;5.90;;
9938;SDS011;5008;50.656;7.188;2023-06-22T05:12:38;7.47;;;6.72;;
9938;SDS011;5008;50.656;7.188;2023-06-22T05:15:06;7.00;;;6.30;;
9938;SDS011;5008;50.656;7.188;2023-06-22T05:17:33;6.30;;;5.80;;
9938;SDS011;5008;50.656;7.188;2023-06-22T05:20:01;8.30;;;7.55;;
9938;SDS011;5008;50.656;7.188;2023-06-22T05:22:31;7.45;;;6.75;;
9938;SDS011;5008;50.656;7.188;2023-06-22T05:24:58;6.55;;;5.95;;
9938;SDS011;5008;50.656;7.188;2023-06-22T05:27:26;7.05;;;6.45;;
9938;SDS011;5008;50.656;7.188;2023-06-22T05:29:53;7.60;;;6.90;;
9938;SDS011;5008;50.656;7.188;2023-06-22T05:32:20;6.90;;;6.28;;
9938;SDS011;5008;50.656;7.188;2023-06-22T05:34:46;7.93;;;7.18;;
9938;SDS011;5008;50.656;7.188;2023-06-22T05:37:13;7.85;;;7.15;;
9938;SDS011;5008;50.656;7.188;2023-06-22T05:39:41;7.90;;;7.00;;
9938;SDS011;5008;50.656;7.188;2023-06-22T05:42:08;7.53;;;6.57;;
9938;SDS011;5008;50.656;7.188;2023-06-22T05:44:36;7.93;;;7.28;;
9938;SDS011;5008;50.656;7.188;2023-06-22T05:47:04;8.18;;;7.30;;
9938;SDS011;5008;50.656;7.188;2023-06-22T05:49:31;7.50;;;6.80;;
9938;SDS011;5008;50.656;7.188;2023-06-22T05:51:58;8.20;;;7.50;;
9938;SDS011;5008;50.656;7.188;2023-06-22T05:54:26;7.35;;;6.68;;
9938;SDS011;5008;50.656;7.188;2023-06-22T05:56:53;9.30;;;8.18;;
9938;SDS011;5008;50.656;7.188;2023-06-22T05:59:20;8.20;;;7.60;;
9938;SDS011;5008;50.656;7.188;2023-06-22T06:01:48;7.88;;;7.18;;
9938;SDS011;5008;50.656;7.188;2023-06-22T06:04:16;8.10;;;7.40;;
9938;SDS011;5008;50.656;7.188;2023-06-22T06:06:43;8.30;;;7.45;;
9938;SDS011;5008;50.656;7.188;2023-06-22T06:09:10;9.00;;;8.23;;
9938;SDS011;5008;50.656;7.188;2023-06-22T06:11:37;8.65;;;7.93;;
9938;SDS011;5008;50.656;7.188;2023-06-22T06:14:04;8.75;;;7.95;;
9938;SDS011;5008;50.656;7.188;2023-06-22T06:16:31;8.43;;;7.82;;
9938;SDS011;5008;50.656;7.188;2023-06-22T06:18:59;8.60;;;7.85;;
9938;SDS011;5008;50.656;7.188;2023-06-22T06:21:26;8.75;;;7.93;;
9938;SDS011;5008;50.656;7.188;2023-06-22T06:23:53;8.00;;;7.40;;
9938;SDS011;5008;50.656;7.188;2023-06-22T06:26:20;8.07;;;7.38;;
9938;SDS011;5008;50.656;7.188;2023-06-22T06:28:54;8.48;;;7.68;;
9938;SDS011;5008;50.656;7.188;2023-06-22T06:31:22;8.38;;;7.68;;
9938;SDS011;5008;50.656;7.188;2023-06-22T06:33:49;8.43;;;7.55;;
9938;SDS011;5008;50.656;7.188;2023-06-22T06:36:18;8.02;;;7.32;;
9938;SDS011;5008;50.656;7.188;2023-06-22T06:38:46;8.77;;;8.00;;
9938;SDS011;5008;50.656;7.188;2023-06-22T06:41:13;7.22;;;6.63;;
9938;SDS011;5008;50.656;7.188;2023-06-22T06:43:43;8.80;;;8.10;;
9938;SDS011;5008;50.656;7.188;2023-06-22T06:46:10;8.32;;;7.68;;
9938;SDS011;5008;50.656;7.188;2023-06-22T06:48:37;9.88;;;9.07;;
9938;SDS011;5008;50.656;7.188;2023-06-22T06:51:04;7.75;;;7.13;;
9938;SDS011;5008;50.656;7.188;2023-06-22T06:53:35;8.30;;;7.63;;
9938;SDS011;5008;50.656;7.188;2023-06-22T06:56:02;8.23;;;7.45;;
9938;SDS011;5008;50.656;7.188;2023-06-22T06:58:30;7.82;;;7.13;;
9938;SDS011;5008;50.656;7.188;2023-06-22T07:00:57;8.52;;;7.80;;
9938;SDS011;5008;50.656;7.188;2023-06-22T07:03:23;7.70;;;7.10;;
9938;SDS011;5008;50.656;7.188;2023-06-22T07:05:50;8.35;;;7.60;;
9938;SDS011;5008;50.656;7.188;2023-06-22T07:08:17;8.18;;;7.38;;
9938;SDS011;5008;50.656;7.188;2023-06-22T07:10:46;8.35;;;7.65;;
9938;SDS011;5008;50.656;7.188;2023-06-22T07:13:13;8.27;;;7.57;;
9938;SDS011;5008;50.656;7.188;2023-06-22T07:15:40;8.07;;;7.40;;
9938;SDS011;5008;50.656;7.188;2023-06-22T07:18:07;8.52;;;7.75;;
9938;SDS011;5008;50.656;7.188;2023-06-22T07:20:34;8.32;;;7.70;;
9938;SDS011;5008;50.656;7.188;2023-06-22T07:23:00;9.10;;;8.38;;
9938;SDS011;5008;50.656;7.188;2023-06-22T07:25:27;9.77;;;8.68;;
9938;SDS011;5008;50.656;7.188;2023-06-22T07:27:59;9.68;;;8.35;;
9938;SDS011;5008;50.656;7.188;2023-06-22T07:30:27;9.07;;;8.27;;
9938;SDS011;5008;50.656;7.188;2023-06-22T07:32:54;9.13;;;8.32;;
9938;SDS011;5008;50.656;7.188;2023-06-22T07:35:21;9.35;;;8.35;;
9938;SDS011;5008;50.656;7.188;2023-06-22T07:37:48;9.05;;;8.30;;
9938;SDS011;5008;50.656;7.188;2023-06-22T07:40:15;8.68;;;7.88;;
9938;SDS011;5008;50.656;7.188;2023-06-22T07:42:42;8.68;;;7.97;;
9938;SDS011;5008;50.656;7.188;2023-06-22T07:45:10;8.85;;;8.02;;
9938;SDS011;5008;50.656;7.188;2023-06-22T07:47:37;9.10;;;8.20;;
9938;SDS011;5008;50.656;7.188;2023-06-22T07:50:04;8.93;;;8.13;;
9938;SDS011;5008;50.656;7.188;2023-06-22T07:52:32;9.60;;;8.70;;
9938;SDS011;5008;50.656;7.188;2023-06-22T07:54:58;9.27;;;8.48;;
9938;SDS011;5008;50.656;7.188;2023-06-22T07:57:25;9.95;;;8.95;;
9938;SDS011;5008;50.656;7.188;2023-06-22T07:59:58;9.57;;;8.73;;
9938;SDS011;5008;50.656;7.188;2023-06-22T08:02:26;9.25;;;8.45;;
9938;SDS011;5008;50.656;7.188;2023-06-22T08:04:53;9.18;;;8.38;;
9938;SDS011;5008;50.656;7.188;2023-06-22T08:07:20;9.90;;;9.10;;
9938;SDS011;5008;50.656;7.188;2023-06-22T08:09:47;10.00;;;9.20;;
9938;SDS011;5008;50.656;7.188;2023-06-22T08:12:15;8.57;;;7.80;;
9938;SDS011;5008;50.656;7.188;2023-06-22T08:14:42;9.07;;;8.27;;
9938;SDS011;5008;50.656;7.188;2023-06-22T08:17:11;10.73;;;9.73;;
9938;SDS011;5008;50.656;7.188;2023-06-22T08:19:39;9.02;;;8.32;;
9938;SDS011;5008;50.656;7.188;2023-06-22T08:22:06;10.05;;;9.15;;
9938;SDS011;5008;50.656;7.188;2023-06-22T08:24:33;9.27;;;8.50;;
9938;SDS011;5008;50.656;7.188;2023-06-22T08:27:00;9.48;;;7.93;;
9938;SDS011;5008;50.656;7.188;2023-06-22T08:29:27;8.15;;;7.45;;
9938;SDS011;5008;50.656;7.188;2023-06-22T08:31:53;8.77;;;8.00;;
9938;SDS011;5008;50.656;7.188;2023-06-22T08:34:20;8.13;;;7.45;;
9938;SDS011;5008;50.656;7.188;2023-06-22T08:36:54;9.80;;;8.85;;
9938;SDS011;5008;50.656;7.188;2023-06-22T08:39:21;9.15;;;8.32;;
9938;SDS011;5008;50.656;7.188;2023-06-22T08:41:48;8.95;;;8.15;;
9938;SDS011;5008;50.656;7.188;2023-06-22T08:44:16;8.75;;;8.05;;
9938;SDS011;5008;50.656;7.188;2023-06-22T08:46:44;7.50;;;6.90;;
9938;SDS011;5008;50.656;7.188;2023-06-22T08:49:11;8.60;;;7.88;;
9938;SDS011;5008;50.656;7.188;2023-06-22T08:51:38;8.18;;;7.57;;
9938;SDS011;5008;50.656;7.188;2023-06-22T08:54:06;7.65;;;6.90;;
9938;SDS011;5008;50.656;7.188;2023-06-22T08:56:34;8.43;;;7.65;;
9938;SDS011;5008;50.656;7.188;2023-06-22T08:59:00;6.38;;;5.88;;
9938;SDS011;5008;50.656;7.188;2023-06-22T09:01:27;8.57;;;7.60;;
9938;SDS011;5008;50.656;7.188;2023-06-22T09:03:54;5.85;;;5.35;;
9938;SDS011;5008;50.656;7.188;2023-06-22T09:06:22;7.22;;;6.65;;
9938;SDS011;5008;50.656;7.188;2023-06-22T09:08:49;8.43;;;7.72;;
9938;SDS011;5008;50.656;7.188;2023-06-22T09:11:17;7.60;;;6.97;;
9938;SDS011;5008;50.656;7.188;2023-06-22T09:13:44;7.15;;;6.63;;
9938;SDS011;5008;50.656;7.188;2023-06-22T09:16:11;6.43;;;5.93;;
9938;SDS011;5008;50.656;7.188;2023-06-22T09:18:38;6.13;;;5.72;;
9938;SDS011;5008;50.656;7.188;2023-06-22T09:21:04;7.03;;;6.47;;
9938;SDS011;5008;50.656;7.188;2023-06-22T09:23:32;6.63;;;6.13;;
9938;SDS011;5008;50.656;7.188;2023-06-22T09:25:58;4.60;;;4.30;;
9938;SDS011;5008;50.656;7.188;2023-06-22T09:28:26;7.20;;;6.60;;
9938;SDS011;5008;50.656;7.188;2023-06-22T09:30:53;6.50;;;6.00;;
9938;SDS011;5008;50.656;7.188;2023-06-22T09:33:24;6.78;;;6.28;;
9938;SDS011;5008;50.656;7.188;2023-06-22T09:35:51;6.82;;;6.32;;
9938;SDS011;5008;50.656;7.188;2023-06-22T09:38:17;5.40;;;5.00;;
9938;SDS011;5008;50.656;7.188;2023-06-22T09:40:44;6.68;;;6.15;;
9938;SDS011;5008;50.656;7.188;2023-06-22T09:43:11;5.90;;;5.40;;
9938;SDS011;5008;50.656;7.188;2023-06-22T09:45:39;7.50;;;6.93;;
9938;SDS011;5008;50.656;7.188;2023-06-22T09:48:06;7.40;;;6.80;;
9938;SDS011;5008;50.656;7.188;2023-06-22T09:50:34;8.57;;;7.88;;
9938;SDS011;5008;50.656;7.188;2023-06-22T09:53:01;5.40;;;5.00;;
9938;SDS011;5008;50.656;7.188;2023-06-22T09:55:28;6.93;;;6.28;;
9938;SDS011;5008;50.656;7.188;2023-06-22T09:57:55;6.90;;;6.40;;
9938;SDS011;5008;50.656;7.188;2023-06-22T10:00:22;5.75;;;5.35;;
9938;SDS011;5008;50.656;7.188;2023-06-22T10:02:50;8.15;;;7.45;;
9938;SDS011;5008;50.656;7.188;2023-06-22T10:05:17;7.13;;;6.43;;
9938;SDS011;5008;50.656;7.188;2023-06-22T10:07:43;8.05;;;7.35;;
9938;SDS011;5008;50.656;7.188;2023-06-22T10:10:10;7.70;;;7.00;;
9938;SDS011;5008;50.656;7.188;2023-06-22T10:12:41;8.48;;;7.63;;
9938;SDS011;5008;50.656;7.188;2023-06-22T10:15:09;8.45;;;7.65;;
9938;SDS011;5008;50.656;7.188;2023-06-22T10:17:36;8.90;;;8.18;;
9938;SDS011;5008;50.656;7.188;2023-06-22T10:20:05;8.93;;;8.23;;
9938;SDS011;5008;50.656;7.188;2023-06-22T10:22:37;9.55;;;8.77;;
9938;SDS011;5008;50.656;7.188;2023-06-22T10:25:05;8.60;;;7.90;;
9938;SDS011;5008;50.656;7.188;2023-06-22T10:27:32;9.55;;;8.85;;
9938;SDS011;5008;50.656;7.188;2023-06-22T10:29:59;9.35;;;8.63;;
9938;SDS011;5008;50.656;7.188;2023-06-22T10:32:26;10.25;;;9.23;;
9938;SDS011;5008;50.656;7.188;2023-06-22T10:34:54;10.55;;;9.60;;
9938;SDS011;5008;50.656;7.188;2023-06-22T10:37:22;11.15;;;9.10;;
9938;SDS011;5008;50.656;7.188;2023-06-22T10:39:49;10.85;;;9.85;;
9938;SDS011;5008;50.656;7.188;2023-06-22T10:42:16;10.85;;;9.70;;
9938;SDS011;5008;50.656;7.188;2023-06-22T10:44:43;11.35;;;10.35;;
9938;SDS011;5008;50.656;7.188;2023-06-22T10:47:10;13.55;;;12.25;;
9938;SDS011;5008;50.656;7.188;2023-06-22T10:49:37;15.18;;;12.65;;
9938;SDS011;5008;50.656;7.188;2023-06-22T10:52:04;14.23;;;12.05;;
9938;SDS011;5008;50.656;7.188;2023-06-22T10:54:33;16.13;;;12.77;;
9938;SDS011;5008;50.656;7.188;2023-06-22T10:57:01;27.15;;;15.75;;
9938;SDS011;5008;50.656;7.188;2023-06-22T10:59:28;24.77;;;14.38;;
9938;SDS011;5008;50.656;7.188;2023-06-22T11:01:55;14.27;;;12.80;;
9938;SDS011;5008;50.656;7.188;2023-06-22T11:04:22;15.75;;;14.15;;
9938;SDS011;5008;50.656;7.188;2023-06-22T11:06:50;16.42;;;14.75;;
9938;SDS011;5008;50.656;7.188;2023-06-22T11:09:17;17.23;;;15.63;;
9938;SDS011;5008;50.656;7.188;2023-06-22T11:11:47;18.38;;;16.67;;
9938;SDS011;5008;50.656;7.188;2023-06-22T11:14:15;18.45;;;16.75;;
9938;SDS011;5008;50.656;7.188;2023-06-22T11:16:42;18.70;;;17.00;;
9938;SDS011;5008;50.656;7.188;2023-06-22T11:19:09;20.45;;;18.58;;
9938;SDS011;5008;50.656;7.188;2023-06-22T11:21:36;18.92;;;17.00;;
9938;SDS011;5008;50.656;7.188;2023-06-22T11:24:03;23.00;;;20.80;;
9938;SDS011;5008;50.656;7.188;2023-06-22T11:29:02;21.73;;;19.67;;
9938;SDS011;5008;50.656;7.188;2023-06-22T11:31:30;22.42;;;20.30;;
9938;SDS011;5008;50.656;7.188;2023-06-22T11:33:57;22.60;;;20.55;;
9938;SDS011;5008;50.656;7.188;2023-06-22T11:36:24;21.88;;;19.85;;
9938;SDS011;5008;50.656;7.188;2023-06-22T11:38:51;21.52;;;17.95;;
9938;SDS011;5008;50.656;7.188;2023-06-22T11:41:19;0.85;;;0.70;;
9938;SDS011;5008;50.656;7.188;2023-06-22T11:43:45;2.28;;;1.90;;
9938;SDS011;5008;50.656;7.188;2023-06-22T11:46:14;2.10;;;1.73;;
9938;SDS011;5008;50.656;7.188;2023-06-22T11:48:41;0.32;;;0.32;;
9938;SDS011;5008;50.656;7.188;2023-06-22T11:51:07;0.10;;;0.10;;
9938;SDS011;5008;50.656;7.188;2023-06-22T11:53:34;0.73;;;0.73;;
9938;SDS011;5008;50.656;7.188;2023-06-22T11:56:01;0.43;;;0.43;;
9938;SDS011;5008;50.656;7.188;2023-06-22T11:58:28;0.10;;;0.10;;
9938;SDS011;5008;50.656;7.188;2023-06-22T12:00:55;0.40;;;0.40;;
9938;SDS011;5008;50.656;7.188;2023-06-22T12:03:23;0.88;;;0.88;;
9938;SDS011;5008;50.656;7.188;2023-06-22T12:05:50;1.35;;;1.30;;
9938;SDS011;5008;50.656;7.188;2023-06-22T12:08:17;0.63;;;0.63;;
9938;SDS011;5008;50.656;7.188;2023-06-22T12:10:44;0.63;;;0.63;;
9938;SDS011;5008;50.656;7.188;2023-06-22T12:13:11;0.47;;;0.47;;
9938;SDS011;5008;50.656;7.188;2023-06-22T12:15:38;1.08;;;1.08;;
9938;SDS011;5008;50.656;7.188;2023-06-22T12:18:05;0.55;;;0.43;;
9938;SDS011;5008;50.656;7.188;2023-06-22T12:20:33;1.83;;;0.55;;
9938;SDS011;5008;50.656;7.188;2023-06-22T12:23:00;0.30;;;0.30;;
9938;SDS011;5008;50.656;7.188;2023-06-22T12:25:27;1.38;;;0.88;;
9938;SDS011;5008;50.656;7.188;2023-06-22T12:27:54;1.15;;;1.05;;
9938;SDS011;5008;50.656;7.188;2023-06-22T12:30:20;0.68;;;0.68;;
9938;SDS011;5008;50.656;7.188;2023-06-22T12:32:47;0.00;;;0.00;;
9938;SDS011;5008;50.656;7.188;2023-06-22T12:35:14;6.60;;;1.10;;
9938;SDS011;5008;50.656;7.188;2023-06-22T12:37:43;1.83;;;1.73;;
9938;SDS011;5008;50.656;7.188;2023-06-22T12:40:10;0.57;;;0.57;;
9938;SDS011;5008;50.656;7.188;2023-06-22T12:42:37;0.10;;;0.10;;
9938;SDS011;5008;50.656;7.188;2023-06-22T12:45:04;0.68;;;0.68;;
9938;SDS011;5008;50.656;7.188;2023-06-22T12:47:32;0.63;;;0.63;;
9938;SDS011;5008;50.656;7.188;2023-06-22T12:49:58;0.57;;;0.57;;
9938;SDS011;5008;50.656;7.188;2023-06-22T12:52:25;0.10;;;0.10;;
9938;SDS011;5008;50.656;7.188;2023-06-22T12:54:53;0.10;;;0.10;;
9938;SDS011;5008;50.656;7.188;2023-06-22T12:57:20;0.10;;;0.10;;
9938;SDS011;5008;50.656;7.188;2023-06-22T12:59:47;0.93;;;0.93;;
9938;SDS011;5008;50.656;7.188;2023-06-22T13:02:14;0.20;;;0.20;;
9938;SDS011;5008;50.656;7.188;2023-06-22T13:04:40;1.17;;;1.17;;
9938;SDS011;5008;50.656;7.188;2023-06-22T13:09:56;12.30;;;11.30;;
9938;SDS011;5008;50.656;7.188;2023-06-22T13:12:22;11.55;;;10.63;;
9938;SDS011;5008;50.656;7.188;2023-06-22T13:14:49;11.52;;;10.63;;
9938;SDS011;5008;50.656;7.188;2023-06-22T13:17:16;10.13;;;9.32;;
9938;SDS011;5008;50.656;7.188;2023-06-22T13:19:43;10.45;;;9.65;;
9938;SDS011;5008;50.656;7.188;2023-06-22T13:22:25;9.82;;;9.10;;
9938;SDS011;5008;50.656;7.188;2023-06-22T13:24:54;9.57;;;8.68;;
9938;SDS011;5008;50.656;7.188;2023-06-22T13:27:22;8.65;;;8.05;;
9938;SDS011;5008;50.656;7.188;2023-06-22T13:29:49;9.05;;;8.25;;
9938;SDS011;5008;50.656;7.188;2023-06-22T13:32:16;10.20;;;9.40;;
9938;SDS011;5008;50.656;7.188;2023-06-22T13:34:43;6.00;;;5.55;;
9938;SDS011;5008;50.656;7.188;2023-06-22T13:37:10;8.45;;;7.65;;
9938;SDS011;5008;50.656;7.188;2023-06-22T13:39:36;6.40;;;5.95;;
9938;SDS011;5008;50.656;7.188;2023-06-22T13:42:05;6.88;;;6.38;;
9938;SDS011;5008;50.656;7.188;2023-06-22T13:44:32;5.47;;;5.07;;
9938;SDS011;5008;50.656;7.188;2023-06-22T13:46:59;5.68;;;5.28;;
9938;SDS011;5008;50.656;7.188;2023-06-22T13:49:26;7.35;;;6.85;;
9938;SDS011;5008;50.656;7.188;2023-06-22T13:51:52;9.85;;;9.05;;
9938;SDS011;5008;50.656;7.188;2023-06-22T13:54:19;8.55;;;7.90;;
9938;SDS011;5008;50.656;7.188;2023-06-22T13:56:46;8.15;;;7.45;;
9938;SDS011;5008;50.656;7.188;2023-06-22T13:59:14;8.77;;;8.07;;
9938;SDS011;5008;50.656;7.188;2023-06-22T14:01:41;9.15;;;8.35;;
9938;SDS011;5008;50.656;7.188;2023-06-22T14:04:08;8.15;;;7.55;;
9938;SDS011;5008;50.656;7.188;2023-06-22T14:06:36;8.32;;;7.63;;
9938;SDS011;5008;50.656;7.188;2023-06-22T14:09:03;8.35;;;7.55;;
9938;SDS011;5008;50.656;7.188;2023-06-22T14:11:30;7.40;;;6.70;;
9938;SDS011;5008;50.656;7.188;2023-06-22T14:13:57;7.15;;;6.45;;
9938;SDS011;5008;50.656;7.188;2023-06-22T14:16:25;7.10;;;6.50;;
9938;SDS011;5008;50.656;7.188;2023-06-22T14:18:52;7.07;;;6.57;;
9938;SDS011;5008;50.656;7.188;2023-06-22T14:21:19;6.57;;;5.97;;
9938;SDS011;5008;50.656;7.188;2023-06-22T14:23:45;6.90;;;6.30;;
9938;SDS011;5008;50.656;7.188;2023-06-22T14:26:14;10.98;;;7.50;;
9938;SDS011;5008;50.656;7.188;2023-06-22T14:28:42;14.65;;;9.18;;
9938;SDS011;5008;50.656;7.188;2023-06-22T14:31:12;9.73;;;8.68;;
9938;SDS011;5008;50.656;7.188;2023-06-22T14:33:43;9.80;;;8.65;;
9938;SDS011;5008;50.656;7.188;2023-06-22T14:36:12;9.10;;;8.13;;
9938;SDS011;5008;50.656;7.188;2023-06-22T14:38:38;8.38;;;7.57;;
9938;SDS011;5008;50.656;7.188;2023-06-22T14:41:05;9.18;;;8.38;;
9938;SDS011;5008;50.656;7.188;2023-06-22T14:43:32;13.13;;;8.85;;
9938;SDS011;5008;50.656;7.188;2023-06-22T14:45:59;8.70;;;7.80;;
9938;SDS011;5008;50.656;7.188;2023-06-22T14:48:26;9.25;;;8.35;;
9938;SDS011;5008;50.656;7.188;2023-06-22T14:50:54;10.80;;;8.32;;
9938;SDS011;5008;50.656;7.188;2023-06-22T14:53:21;11.80;;;8.73;;
9938;SDS011;5008;50.656;7.188;2023-06-22T14:55:48;11.40;;;9.00;;
9938;SDS011;5008;50.656;7.188;2023-06-22T14:58:15;18.25;;;9.98;;
9938;SDS011;5008;50.656;7.188;2023-06-22T15:00:42;13.02;;;10.88;;
9938;SDS011;5008;50.656;7.188;2023-06-22T15:03:09;15.02;;;10.40;;
9938;SDS011;5008;50.656;7.188;2023-06-22T15:05:42;12.55;;;9.45;;
9938;SDS011;5008;50.656;7.188;2023-06-22T15:08:11;9.98;;;8.98;;
9938;SDS011;5008;50.656;7.188;2023-06-22T15:10:40;9.00;;;8.18;;
9938;SDS011;5008;50.656;7.188;2023-06-22T15:15:52;11.45;;;10.25;;
9938;SDS011;5008;50.656;7.188;2023-06-22T15:18:24;10.70;;;9.80;;
9938;SDS011;5008;50.656;7.188;2023-06-22T15:21:01;10.55;;;9.35;;
9938;SDS011;5008;50.656;7.188;2023-06-22T15:23:34;9.18;;;8.38;;
9938;SDS011;5008;50.656;7.188;2023-06-22T15:26:19;8.48;;;7.68;;
9938;SDS011;5008;50.656;7.188;2023-06-22T15:28:46;8.73;;;7.90;;
9938;SDS011;5008;50.656;7.188;2023-06-22T15:31:14;9.02;;;8.23;;
9938;SDS011;5008;50.656;7.188;2023-06-22T15:33:41;9.07;;;7.97;;
9938;SDS011;5008;50.656;7.188;2023-06-22T15:36:09;9.38;;;8.35;;
9938;SDS011;5008;50.656;7.188;2023-06-22T15:38:39;7.75;;;6.97;;
9938;SDS011;5008;50.656;7.188;2023-06-22T15:41:06;8.95;;;6.28;;
9938;SDS011;5008;50.656;7.188;2023-06-22T15:43:32;7.82;;;6.05;;
9938;SDS011;5008;50.656;7.188;2023-06-22T15:45:59;6.28;;;5.68;;
9938;SDS011;5008;50.656;7.188;2023-06-22T15:48:26;6.10;;;5.50;;
9938;SDS011;5008;50.656;7.188;2023-06-22T15:50:53;11.15;;;5.50;;
9938;SDS011;5008;50.656;7.188;2023-06-22T15:53:20;7.85;;;5.50;;
9938;SDS011;5008;50.656;7.188;2023-06-22T15:55:50;9.75;;;6.18;;
9938;SDS011;5008;50.656;7.188;2023-06-22T15:58:17;6.45;;;5.30;;
9938;SDS011;5008;50.656;7.188;2023-06-22T16:00:44;6.07;;;5.45;;
9938;SDS011;5008;50.656;7.188;2023-06-22T16:03:13;6.75;;;5.15;;
9938;SDS011;5008;50.656;7.188;2023-06-22T16:05:41;7.55;;;5.07;;
9938;SDS011;5008;50.656;7.188;2023-06-22T16:08:09;5.57;;;4.85;;
9938;SDS011;5008;50.656;7.188;2023-06-22T16:10:37;6.47;;;4.65;;
9938;SDS011;5008;50.656;7.188;2023-06-22T16:13:06;6.45;;;4.85;;
9938;SDS011;5008;50.656;7.188;2023-06-22T16:15:32;5.32;;;4.25;;
9938;SDS011;5008;50.656;7.188;2023-06-22T16:17:59;6.00;;;4.75;;
9938;SDS011;5008;50.656;7.188;2023-06-22T16:20:26;5.85;;;4.00;;
9938;SDS011;5008;50.656;7.188;2023-06-22T16:22:53;6.40;;;4.40;;
9938;SDS011;5008;50.656;7.188;2023-06-22T16:25:19;6.95;;;4.80;;
9938;SDS011;5008;50.656;7.188;2023-06-22T16:27:46;5.60;;;4.85;;
9938;SDS011;5008;50.656;7.188;2023-06-22T16:30:14;6.25;;;4.40;;
9938;SDS011;5008;50.656;7.188;2023-06-22T16:32:49;7.68;;;5.47;;
9938;SDS011;5008;50.656;7.188;2023-06-22T16:35:17;5.00;;;4.50;;
9938;SDS011;5008;50.656;7.188;2023-06-22T16:37:43;6.53;;;5.13;;
9938;SDS011;5008;50.656;7.188;2023-06-22T16:40:10;5.85;;;5.25;;
9938;SDS011;5008;50.656;7.188;2023-06-22T16:42:37;6.47;;;5.47;;
9938;SDS011;5008;50.656;7.188;2023-06-22T16:45:04;9.07;;;5.10;;
9938;SDS011;5008;50.656;7.188;2023-06-22T16:47:33;7.03;;;5.15;;
9938;SDS011;5008;50.656;7.188;2023-06-22T16:50:00;7.45;;;5.25;;
9938;SDS011;5008;50.656;7.188;2023-06-22T16:52:27;7.50;;;5.63;;
9938;SDS011;5008;50.656;7.188;2023-06-22T16:54:54;5.80;;;4.70;;
9938;SDS011;5008;50.656;7.188;2023-06-22T16:57:21;5.10;;;4.60;;
9938;SDS011;5008;50.656;7.188;2023-06-22T16:59:51;7.07;;;5.03;;
9938;SDS011;5008;50.656;7.188;2023-06-22T17:02:19;6.13;;;4.40;;
9938;SDS011;5008;50.656;7.188;2023-06-22T17:04:49;5.03;;;4.45;;
9938;SDS011;5008;50.656;7.188;2023-06-22T17:07:19;6.80;;;5.15;;
9938;SDS011;5008;50.656;7.188;2023-06-22T17:09:47;5.63;;;4.72;;
9938;SDS011;5008;50.656;7.188;2023-06-22T17:12:15;4.88;;;4.30;;
9938;SDS011;5008;50.656;7.188;2023-06-22T17:14:43;7.78;;;4.95;;
9938;SDS011;5008;50.656;7.188;2023-06-22T17:17:11;5.55;;;4.95;;
9938;SDS011;5008;50.656;7.188;2023-06-22T17:19:41;4.95;;;4.45;;
9938;SDS011;5008;50.656;7.188;2023-06-22T17:22:10;5.72;;;4.60;;
9938;SDS011;5008;50.656;7.188;2023-06-22T17:24:37;6.65;;;4.55;;
9938;SDS011;5008;50.656;7.188;2023-06-22T17:27:06;5.18;;;4.10;;
9938;SDS011;5008;50.656;7.188;2023-06-22T17:29:33;5.78;;;5.25;;
9938;SDS011;5008;50.656;7.188;2023-06-22T17:32:00;5.22;;;4.72;;
9938;SDS011;5008;50.656;7.188;2023-06-22T17:34:28;5.78;;;5.25;;
9938;SDS011;5008;50.656;7.188;2023-06-22T17:36:56;7.47;;;5.20;;
9938;SDS011;5008;50.656;7.188;2023-06-22T17:39:25;5.00;;;4.50;;
9938;SDS011;5008;50.656;7.188;2023-06-22T17:41:53;5.60;;;4.63;;
9938;SDS011;5008;50.656;7.188;2023-06-22T17:44:21;6.50;;;5.03;;
9938;SDS011;5008;50.656;7.188;2023-06-22T17:46:51;5.50;;;4.32;;
9938;SDS011;5008;50.656;7.188;2023-06-22T17:49:18;8.75;;;5.38;;
9938;SDS011;5008;50.656;7.188;2023-06-22T17:51:45;7.15;;;5.13;;
9938;SDS011;5008;50.656;7.188;2023-06-22T17:54:15;7.50;;;4.82;;
9938;SDS011;5008;50.656;7.188;2023-06-22T17:56:43;6.18;;;4.90;;
9938;SDS011;5008;50.656;7.188;2023-06-22T17:59:15;4.65;;;4.25;;
9938;SDS011;5008;50.656;7.188;2023-06-22T18:01:41;5.45;;;4.50;;
9938;SDS011;5008;50.656;7.188;2023-06-22T18:04:11;5.60;;;5.05;;
9938;SDS011;5008;50.656;7.188;2023-06-22T18:06:39;5.07;;;4.53;;
9938;SDS011;5008;50.656;7.188;2023-06-22T18:09:08;4.82;;;4.40;;
9938;SDS011;5008;50.656;7.188;2023-06-22T18:11:37;5.53;;;5.03;;
9938;SDS011;5008;50.656;7.188;2023-06-22T18:14:11;5.88;;;4.60;;
9938;SDS011;5008;50.656;7.188;2023-06-22T18:16:40;5.38;;;4.88;;
9938;SDS011;5008;50.656;7.188;2023-06-22T18:19:09;5.15;;;4.68;;
9938;SDS011;5008;50.656;7.188;2023-06-22T18:21:36;5.57;;;4.57;;
9938;SDS011;5008;50.656;7.188;2023-06-22T18:24:03;5.20;;;4.70;;
9938;SDS011;5008;50.656;7.188;2023-06-22T18:26:31;8.40;;;5.25;;
9938;SDS011;5008;50.656;7.188;2023-06-22T18:29:00;5.68;;;4.72;;
9938;SDS011;5008;50.656;7.188;2023-06-22T18:31:26;5.93;;;5.32;;
9938;SDS011;5008;50.656;7.188;2023-06-22T18:33:56;6.30;;;5.28;;
9938;SDS011;5008;50.656;7.188;2023-06-22T18:36:24;7.80;;;5.60;;
9938;SDS011;5008;50.656;7.188;2023-06-22T18:38:53;10.50;;;5.25;;
9938;SDS011;5008;50.656;7.188;2023-06-22T18:41:24;5.60;;;5.10;;
9938;SDS011;5008;50.656;7.188;2023-06-22T18:44:01;5.85;;;5.30;;
9938;SDS011;5008;50.656;7.188;2023-06-22T18:46:29;7.55;;;5.57;;
9938;SDS011;5008;50.656;7.188;2023-06-22T18:49:01;6.82;;;5.45;;
9938;SDS011;5008;50.656;7.188;2023-06-22T18:51:46;6.95;;;5.47;;
9938;SDS011;5008;50.656;7.188;2023-06-22T18:54:21;7.03;;;5.85;;
9938;SDS011;5008;50.656;7.188;2023-06-22T18:56:54;6.72;;;5.93;;
9938;SDS011;5008;50.656;7.188;2023-06-22T18:59:45;7.90;;;5.70;;
9938;SDS011;5008;50.656;7.188;2023-06-22T19:02:13;5.60;;;5.10;;
9938;SDS011;5008;50.656;7.188;2023-06-22T19:04:42;6.97;;;4.85;;
9938;SDS011;5008;50.656;7.188;2023-06-22T19:07:10;5.68;;;4.88;;
9938;SDS011;5008;50.656;7.188;2023-06-22T19:09:38;8.68;;;7.97;;
9938;SDS011;5008;50.656;7.188;2023-06-22T19:12:21;10.25;;;9.35;;
9938;SDS011;5008;50.656;7.188;2023-06-22T19:15:02;10.27;;;9.30;;
9938;SDS011;5008;50.656;7.188;2023-06-22T19:17:38;9.40;;;8.70;;
9938;SDS011;5008;50.656;7.188;2023-06-22T19:20:10;9.95;;;9.15;;
9938;SDS011;5008;50.656;7.188;2023-06-22T19:22:44;10.10;;;9.20;;
9938;SDS011;5008;50.656;7.188;2023-06-22T19:25:22;10.02;;;9.32;;
9938;SDS011;5008;50.656;7.188;2023-06-22T19:27:52;10.23;;;9.43;;
9938;SDS011;5008;50.656;7.188;2023-06-22T19:30:22;9.65;;;8.85;;